METAR Formatted Surface Weather Observation
Issued by NWS Buffalo, NY

Home | Current Version | Previous Version | Text Only | Print | Product List | Glossary On
Versions: 1 2 3 4
608
SAUS41 KBUF 232256
MTRROC
METAR KROC 232254Z 33012G20KT 10SM FEW070 FEW250 31/13 A2992 RMK AO2
SLP129 T03110128



USA.gov is the U.S. government's official web portal to all federal, state and local government web resources and services.